createdAt,value
2018-07-23T00:00:04.760Z,19.00
2018-07-23T00:02:33.683Z,20.35
2018-07-23T00:05:02.594Z,19.57
2018-07-23T00:07:31.504Z,18.80
2018-07-23T00:10:00.415Z,20.15
2018-07-23T00:12:29.355Z,19.73
2018-07-23T00:14:58.304Z,18.07
2018-07-23T00:17:27.223Z,19.35
2018-07-23T00:19:56.211Z,19.62
2018-07-23T00:22:25.146Z,18.70
2018-07-23T00:24:54.071Z,19.75
2018-07-23T00:27:22.990Z,18.12
2018-07-23T00:29:53.178Z,16.50
2018-07-23T00:32:22.101Z,20.72
2018-07-23T00:34:51.009Z,19.57
2018-07-23T00:37:19.886Z,19.62
2018-07-23T00:39:48.773Z,20.50
2018-07-23T00:42:18.655Z,17.82
2018-07-23T00:44:47.613Z,17.60
2018-07-23T00:47:16.222Z,18.02
2018-07-23T00:49:45.038Z,20.80
2018-07-23T00:52:13.974Z,18.02
2018-07-23T00:54:42.899Z,18.90
2018-07-23T00:57:11.835Z,18.77
2018-07-23T00:59:40.774Z,18.73
2018-07-23T01:02:09.766Z,20.48
2018-07-23T01:04:38.730Z,19.73
2018-07-23T01:07:07.645Z,17.57
2018-07-23T01:09:36.243Z,19.77
2018-07-23T01:12:05.038Z,20.52
2018-07-23T01:14:33.934Z,19.35
2018-07-23T01:17:03.015Z,19.25
2018-07-23T01:19:31.952Z,21.30
2018-07-23T01:22:00.830Z,20.95
2018-07-23T01:24:29.758Z,20.70
2018-07-23T01:26:58.682Z,19.27
2018-07-23T01:29:27.592Z,19.00
2018-07-23T01:31:56.521Z,18.60
2018-07-23T01:34:25.518Z,19.75
2018-07-23T01:36:54.449Z,18.55
2018-07-23T01:39:23.394Z,19.92
2018-07-23T01:41:52.303Z,19.05
2018-07-23T01:44:21.377Z,19.15
2018-07-23T01:46:50.281Z,20.62
2018-07-23T01:49:19.175Z,20.72
2018-07-23T01:51:48.057Z,18.57
2018-07-23T01:54:17.262Z,18.25
2018-07-23T01:56:46.166Z,21.50
2018-07-23T01:59:15.089Z,20.62
2018-07-23T02:01:43.962Z,20.70
2018-07-23T02:04:12.873Z,21.42
2018-07-23T02:06:41.802Z,18.37
2018-07-23T02:09:12.506Z,19.37
2018-07-23T02:11:41.231Z,18.67
2018-07-23T02:14:10.154Z,19.70
2018-07-23T02:16:39.042Z,18.30
2018-07-23T02:19:07.967Z,19.67
2018-07-23T02:21:37.290Z,20.00
2018-07-23T02:24:06.722Z,19.23
2018-07-23T02:26:35.622Z,18.40
2018-07-23T02:29:04.597Z,20.85
2018-07-23T02:31:33.603Z,17.55
2018-07-23T02:34:02.571Z,20.05
2018-07-23T02:36:31.454Z,19.73
2018-07-23T02:39:00.414Z,19.35
2018-07-23T02:41:29.349Z,19.60
2018-07-23T02:43:58.294Z,20.12
2018-07-23T02:46:26.941Z,18.60
2018-07-23T02:48:55.782Z,21.33
2018-07-23T02:51:24.734Z,21.27
2018-07-23T02:53:53.661Z,20.50
2018-07-23T02:56:22.586Z,21.23
2018-07-23T02:58:51.562Z,22.05
2018-07-23T03:01:20.453Z,19.75
2018-07-23T03:03:49.391Z,19.57
2018-07-23T03:06:18.342Z,20.00
2018-07-23T03:08:47.267Z,18.90
2018-07-23T03:11:16.213Z,19.45
2018-07-23T03:13:45.155Z,18.17
2018-07-23T03:16:14.070Z,19.55
2018-07-23T03:18:43.154Z,20.30
2018-07-23T03:21:12.072Z,18.82
2018-07-23T03:23:41.022Z,18.25
2018-07-23T03:26:09.922Z,19.10
2018-07-23T03:28:38.917Z,21.55
2018-07-23T03:31:08.040Z,20.00
2018-07-23T03:33:36.914Z,21.45
2018-07-23T03:36:06.034Z,21.07
2018-07-23T03:38:34.933Z,21.10
2018-07-23T03:41:03.941Z,20.65
2018-07-23T03:43:32.881Z,20.15
2018-07-23T03:46:01.770Z,21.23
2018-07-23T03:48:30.690Z,21.37
2018-07-23T03:50:59.634Z,22.73
2018-07-23T03:53:28.546Z,21.37
2018-07-23T03:55:57.482Z,21.82
2018-07-23T03:58:26.533Z,21.70
2018-07-23T04:00:55.618Z,20.55
2018-07-23T04:03:24.598Z,19.92
2018-07-23T04:05:53.481Z,21.07
2018-07-23T04:08:22.457Z,18.57
2018-07-23T04:10:51.368Z,19.45
2018-07-23T04:13:20.346Z,20.70
2018-07-23T04:15:49.321Z,20.65
2018-07-23T04:18:18.202Z,17.17
2018-07-23T04:20:47.215Z,20.97
2018-07-23T04:23:16.118Z,18.40
2018-07-23T04:25:45.035Z,19.17
2018-07-23T04:28:14.502Z,19.65
2018-07-23T04:30:43.114Z,19.25
2018-07-23T04:33:11.991Z,18.70
2018-07-23T04:35:40.890Z,20.77
2018-07-23T04:38:09.798Z,19.25
2018-07-23T04:40:39.195Z,19.50
2018-07-23T04:43:08.110Z,19.67
2018-07-23T04:45:38.127Z,20.27
2018-07-23T04:48:07.102Z,19.80
2018-07-23T04:50:36.028Z,19.37
2018-07-23T04:53:05.079Z,21.55
2018-07-23T04:55:34.050Z,20.27
2018-07-23T04:58:03.058Z,20.12
2018-07-23T05:00:31.958Z,20.80
2018-07-23T05:03:00.962Z,20.43
2018-07-23T05:05:29.904Z,18.98
2018-07-23T05:07:58.838Z,18.50
2018-07-23T05:10:27.779Z,18.87
2018-07-23T05:12:56.722Z,18.00
2018-07-23T05:15:25.750Z,19.98
2018-07-23T05:17:54.835Z,19.02
2018-07-23T05:20:23.752Z,18.70
2018-07-23T05:22:52.651Z,18.55
2018-07-23T05:25:21.553Z,18.98
2018-07-23T05:27:50.475Z,19.52
2018-07-23T05:30:19.505Z,19.05
2018-07-23T05:32:48.390Z,20.25
2018-07-23T05:35:17.345Z,19.35
2018-07-23T05:37:46.302Z,19.50
2018-07-23T05:40:15.270Z,18.50
2018-07-23T05:42:44.159Z,22.80
2018-07-23T05:45:13.290Z,19.12
2018-07-23T05:47:44.772Z,20.40
2018-07-23T05:50:13.725Z,18.98
2018-07-23T05:52:42.622Z,18.70
2018-07-23T05:55:11.552Z,18.15
2018-07-23T05:57:40.529Z,19.85
2018-07-23T06:00:09.382Z,19.70
2018-07-23T06:02:38.363Z,18.65
2018-07-23T06:05:07.287Z,20.88
2018-07-23T06:07:36.268Z,18.07
2018-07-23T06:10:05.556Z,17.25
2018-07-23T06:12:34.451Z,18.47
2018-07-23T06:15:03.366Z,20.72
2018-07-23T06:17:32.278Z,19.15
2018-07-23T06:20:01.207Z,19.32
2018-07-23T06:22:30.236Z,19.62
2018-07-23T06:24:59.212Z,17.70
2018-07-23T06:27:31.208Z,17.07
2018-07-23T06:30:00.117Z,18.48
2018-07-23T06:32:29.074Z,17.73
2018-07-23T06:34:58.062Z,17.25
2018-07-23T06:37:27.072Z,16.87
2018-07-23T06:39:56.017Z,15.95
2018-07-23T06:42:25.150Z,16.25
2018-07-23T06:44:54.058Z,16.52
2018-07-23T06:47:23.058Z,18.02
2018-07-23T06:49:51.938Z,17.15
2018-07-23T06:52:21.038Z,16.67
2018-07-23T06:54:49.941Z,16.80
2018-07-23T06:57:18.968Z,15.53
2018-07-23T06:59:47.818Z,16.32
2018-07-23T07:02:16.733Z,16.57
2018-07-23T07:04:45.642Z,17.00
2018-07-23T07:07:14.542Z,17.05
2018-07-23T07:09:43.726Z,15.63
2018-07-23T07:12:12.633Z,16.15
2018-07-23T07:14:42.529Z,15.07
2018-07-23T07:17:11.434Z,14.83
2018-07-23T07:19:40.347Z,13.83
2018-07-23T07:22:09.327Z,15.50
2018-07-23T07:24:38.280Z,14.87
2018-07-23T07:27:07.214Z,14.93
2018-07-23T07:29:42.614Z,14.97
2018-07-23T07:32:11.727Z,16.17
2018-07-23T07:34:40.628Z,15.53
2018-07-23T07:37:09.519Z,14.00
2018-07-23T07:39:38.410Z,13.43
2018-07-23T07:42:07.358Z,15.07
2018-07-23T07:44:36.243Z,14.68
2018-07-23T07:47:05.166Z,13.93
2018-07-23T07:49:34.438Z,13.83
2018-07-23T07:52:03.370Z,14.00
2018-07-23T07:54:32.257Z,13.70
2018-07-23T07:57:01.198Z,14.05
2018-07-23T07:59:30.107Z,13.17
2018-07-23T08:01:59.014Z,12.40
2018-07-23T08:04:27.901Z,12.43
2018-07-23T08:06:56.937Z,14.20
2018-07-23T08:09:25.918Z,12.80
2018-07-23T08:11:54.990Z,12.93
2018-07-23T08:14:23.895Z,13.00
2018-07-23T08:16:52.794Z,13.20
2018-07-23T08:19:21.682Z,12.10
2018-07-23T08:21:50.617Z,11.50
2018-07-23T08:24:19.534Z,12.00
2018-07-23T08:26:48.423Z,11.17
2018-07-23T08:29:17.362Z,11.50
2018-07-23T08:31:46.381Z,10.50
2018-07-23T08:34:15.190Z,10.20
2018-07-23T08:36:45.550Z,11.27
2018-07-23T08:39:14.649Z,11.77
2018-07-23T08:41:43.570Z,13.10
2018-07-23T08:44:12.525Z,11.67
2018-07-23T08:46:41.413Z,12.27
2018-07-23T08:49:10.330Z,11.50
2018-07-23T08:51:39.227Z,11.00
2018-07-23T08:54:08.099Z,12.40
2018-07-23T08:56:36.989Z,11.80
2018-07-23T08:59:05.965Z,11.87
2018-07-23T09:01:34.862Z,11.00
2018-07-23T09:04:03.775Z,11.40
2018-07-23T09:06:32.421Z,11.47
2018-07-23T09:09:01.225Z,10.83
2018-07-23T09:11:30.162Z,10.13
2018-07-23T09:13:59.089Z,8.50
2018-07-23T09:16:28.086Z,8.50
2018-07-23T09:18:57.154Z,9.47
2018-07-23T09:21:26.146Z,9.03
2018-07-23T09:23:55.168Z,8.47
2018-07-23T09:26:24.003Z,8.17
2018-07-23T09:28:52.898Z,8.40
2018-07-23T09:31:21.806Z,8.90
2018-07-23T09:33:50.719Z,9.13
2018-07-23T09:36:19.610Z,8.70
2018-07-23T09:38:48.514Z,8.73
2018-07-23T09:41:17.381Z,8.60
2018-07-23T09:43:46.288Z,8.40
2018-07-23T09:46:15.175Z,8.47
2018-07-23T09:48:44.095Z,7.67
2018-07-23T09:51:12.958Z,7.80
2018-07-23T09:53:41.849Z,7.87
2018-07-23T09:56:10.742Z,8.50
2018-07-23T09:58:39.622Z,8.60
2018-07-23T10:01:11.456Z,8.60
2018-07-23T10:03:40.812Z,7.83
2018-07-23T10:06:09.655Z,8.10
2018-07-23T10:08:38.651Z,7.17
2018-07-23T10:11:07.570Z,7.53
2018-07-23T10:13:36.530Z,6.90
2018-07-23T10:16:05.426Z,6.97
2018-07-23T10:18:34.022Z,7.07
2018-07-23T10:21:02.910Z,6.70
2018-07-23T10:23:31.823Z,6.67
2018-07-23T10:26:00.737Z,7.53
2018-07-23T10:28:29.654Z,7.50
2018-07-23T10:30:58.610Z,6.53
2018-07-23T10:33:27.535Z,6.50
2018-07-23T10:35:56.509Z,6.80
2018-07-23T10:38:25.505Z,6.60
2018-07-23T10:40:54.378Z,6.90
2018-07-23T10:43:23.270Z,5.47
2018-07-23T10:45:52.210Z,7.00
2018-07-23T10:48:21.137Z,8.10
2018-07-23T10:50:50.059Z,5.80
2018-07-23T10:53:18.950Z,5.40
2018-07-23T10:55:47.845Z,6.07
2018-07-23T10:58:16.762Z,6.03
2018-07-23T11:00:45.650Z,5.50
2018-07-23T11:03:14.590Z,5.70
2018-07-23T11:05:43.530Z,5.10
2018-07-23T11:08:12.538Z,5.30
2018-07-23T11:10:41.440Z,5.20
2018-07-23T11:13:10.329Z,5.00
2018-07-23T11:15:39.254Z,5.40
2018-07-23T11:18:08.159Z,5.60
2018-07-23T11:20:37.021Z,6.07
2018-07-23T11:23:06.062Z,5.53
2018-07-23T11:25:39.179Z,5.73
2018-07-23T11:28:03.898Z,5.67
2018-07-23T11:30:32.782Z,6.07
2018-07-23T11:33:01.963Z,6.00
2018-07-23T11:35:37.694Z,5.27
2018-07-23T11:38:06.673Z,6.40
2018-07-23T11:40:36.217Z,7.67
2018-07-23T11:43:06.450Z,5.90
2018-07-23T11:45:35.322Z,6.20
2018-07-23T11:48:04.335Z,6.00
2018-07-23T11:50:32.884Z,5.50
2018-07-23T11:53:01.665Z,5.30
2018-07-23T11:55:30.499Z,6.17
2018-07-23T11:57:59.425Z,5.53
2018-07-23T12:00:28.310Z,6.20
2018-07-23T12:02:56.899Z,6.20
2018-07-23T12:05:25.753Z,5.53
2018-07-23T12:07:54.670Z,6.23
2018-07-23T12:10:23.638Z,6.80
2018-07-23T12:12:52.554Z,6.90
2018-07-23T12:15:21.410Z,7.00
2018-07-23T12:17:50.014Z,6.33
2018-07-23T12:20:18.878Z,6.70
2018-07-23T12:22:47.841Z,5.97
2018-07-23T12:25:16.749Z,6.10
2018-07-23T12:27:45.626Z,6.10
2018-07-23T12:30:14.230Z,6.37
2018-07-23T12:32:43.360Z,6.27
2018-07-23T12:35:12.248Z,6.20
2018-07-23T12:37:41.170Z,6.70
2018-07-23T12:40:13.043Z,6.63
2018-07-23T12:42:41.970Z,6.13
2018-07-23T12:45:10.866Z,6.97
2018-07-23T12:47:39.782Z,5.70
2018-07-23T12:50:08.682Z,5.70
2018-07-23T12:52:37.648Z,6.47
2018-07-23T12:55:06.534Z,6.73
2018-07-23T12:57:35.417Z,6.97
2018-07-23T13:00:04.801Z,6.80
2018-07-23T13:02:33.662Z,6.97
2018-07-23T13:05:02.582Z,7.10
2018-07-23T13:07:31.725Z,6.93
2018-07-23T13:10:00.704Z,7.00
2018-07-23T13:12:29.947Z,7.10
2018-07-23T13:14:59.323Z,6.47
2018-07-23T13:17:28.297Z,6.03
2018-07-23T13:19:57.269Z,5.00
2018-07-23T13:22:26.324Z,5.63
2018-07-23T13:24:55.369Z,6.00
2018-07-23T13:27:24.416Z,4.80
2018-07-23T13:29:53.503Z,5.40
2018-07-23T13:32:22.464Z,5.87
2018-07-23T13:34:51.314Z,6.20
2018-07-23T13:37:20.558Z,6.00
2018-07-23T13:39:49.450Z,5.80
2018-07-23T13:42:18.411Z,5.93
2018-07-23T13:44:47.520Z,6.27
2018-07-23T13:47:16.735Z,5.53
2018-07-23T13:49:46.136Z,6.10
2018-07-23T13:52:15.194Z,5.77
2018-07-23T13:54:45.399Z,5.63
2018-07-23T13:57:15.134Z,5.50
2018-07-23T13:59:44.158Z,6.50
2018-07-23T14:02:13.031Z,5.90
2018-07-23T14:04:41.986Z,6.57
2018-07-23T14:07:10.850Z,5.87
2018-07-23T14:09:39.754Z,6.23
2018-07-23T14:12:10.390Z,5.93
2018-07-23T14:14:42.162Z,5.90
2018-07-23T14:17:11.244Z,5.83
2018-07-23T14:19:40.519Z,5.97
2018-07-23T14:22:09.636Z,5.77
2018-07-23T14:24:39.495Z,5.80
2018-07-23T14:27:08.459Z,5.47
2018-07-23T14:29:37.459Z,5.20
2018-07-23T14:32:09.144Z,5.90
2018-07-23T14:34:38.214Z,5.83
2018-07-23T14:37:07.462Z,6.57
2018-07-23T14:39:36.460Z,5.63
2018-07-23T14:42:05.460Z,5.80
2018-07-23T14:44:34.430Z,6.10
2018-07-23T14:47:03.407Z,6.20
2018-07-23T14:49:32.476Z,6.93
2018-07-23T14:52:01.380Z,5.87
2018-07-23T14:54:30.312Z,5.60
2018-07-23T14:56:59.263Z,5.13
2018-07-23T14:59:28.160Z,6.13
2018-07-23T15:01:56.781Z,6.00
2018-07-23T15:04:25.731Z,5.97
2018-07-23T15:06:54.629Z,5.50
2018-07-23T15:09:23.512Z,6.07
2018-07-23T15:11:52.524Z,4.83
2018-07-23T15:14:21.753Z,5.10
2018-07-23T15:16:50.647Z,6.10
2018-07-23T15:19:22.527Z,5.80
2018-07-23T15:21:51.433Z,5.10
2018-07-23T15:24:20.314Z,5.37
2018-07-23T15:26:49.197Z,5.40
2018-07-23T15:29:17.773Z,5.63
2018-07-23T15:31:46.594Z,4.97
2018-07-23T15:34:15.521Z,5.70
2018-07-23T15:36:44.419Z,5.77
2018-07-23T15:39:13.293Z,4.43
2018-07-23T15:41:42.183Z,3.93
2018-07-23T15:44:11.307Z,4.00
2018-07-23T15:46:40.271Z,4.97
2018-07-23T15:49:09.186Z,4.13
2018-07-23T15:51:38.140Z,4.67
2018-07-23T15:54:07.121Z,4.87
2018-07-23T15:56:36.118Z,4.50
2018-07-23T15:59:05.006Z,4.50
2018-07-23T16:01:33.877Z,4.50
2018-07-23T16:04:02.778Z,5.07
2018-07-23T16:06:31.679Z,4.60
2018-07-23T16:09:00.616Z,4.83
2018-07-23T16:11:30.101Z,4.63
2018-07-23T16:13:59.046Z,5.80
2018-07-23T16:16:28.014Z,4.90
2018-07-23T16:18:57.065Z,4.83
2018-07-23T16:21:25.956Z,4.70
2018-07-23T16:23:54.926Z,4.33
2018-07-23T16:26:24.118Z,4.97
2018-07-23T16:28:53.388Z,5.70
2018-07-23T16:31:22.514Z,5.37
2018-07-23T16:33:51.625Z,5.30
2018-07-23T16:36:20.768Z,4.70
2018-07-23T16:38:50.488Z,5.20
2018-07-23T16:41:21.609Z,5.17
2018-07-23T16:43:50.630Z,4.43
2018-07-23T16:46:19.646Z,5.00
2018-07-23T16:48:48.575Z,5.80
2018-07-23T16:51:17.755Z,4.87
2018-07-23T16:53:46.671Z,4.83
2018-07-23T16:56:15.895Z,5.33
2018-07-23T16:58:45.298Z,4.87
2018-07-23T17:01:13.982Z,4.73
2018-07-23T17:03:42.786Z,5.10
2018-07-23T17:06:12.095Z,5.60
2018-07-23T17:08:41.021Z,5.20
2018-07-23T17:11:10.130Z,5.17
2018-07-23T17:13:38.801Z,5.40
2018-07-23T17:16:07.429Z,4.57
2018-07-23T17:18:37.194Z,4.77
2018-07-23T17:21:07.666Z,5.50
2018-07-23T17:23:36.577Z,5.50
2018-07-23T17:26:05.567Z,5.37
2018-07-23T17:28:34.702Z,5.00
2018-07-23T17:31:03.661Z,5.33
2018-07-23T17:33:32.546Z,5.10
2018-07-23T17:36:01.465Z,5.70
2018-07-23T17:38:30.717Z,4.50
2018-07-23T17:40:59.714Z,5.57
2018-07-23T17:43:28.615Z,5.33
2018-07-23T17:45:57.721Z,5.40
2018-07-23T17:48:26.918Z,5.30
2018-07-23T17:50:55.973Z,4.60
2018-07-23T17:53:24.546Z,5.00
2018-07-23T17:55:53.417Z,5.40
2018-07-23T17:58:22.294Z,5.27
2018-07-23T18:00:51.226Z,4.90
2018-07-23T18:03:20.522Z,5.27
2018-07-23T18:05:50.445Z,5.40
2018-07-23T18:08:19.351Z,4.60
2018-07-23T18:10:48.343Z,4.80
2018-07-23T18:13:17.337Z,5.07
2018-07-23T18:15:46.234Z,4.67
2018-07-23T18:18:15.513Z,5.87
2018-07-23T18:20:44.368Z,5.50
2018-07-23T18:23:14.216Z,5.50
2018-07-23T18:25:43.118Z,4.93
2018-07-23T18:28:12.014Z,5.13
2018-07-23T18:30:40.954Z,5.23
2018-07-23T18:33:09.866Z,5.27
2018-07-23T18:35:39.003Z,5.90
2018-07-23T18:38:07.952Z,4.80
2018-07-23T18:40:36.860Z,5.10
2018-07-23T18:43:06.008Z,5.43
2018-07-23T18:45:34.966Z,5.63
2018-07-23T18:49:09.146Z,5.87
2018-07-23T18:51:48.176Z,5.23
2018-07-23T18:54:17.581Z,5.57
2018-07-23T18:56:49.838Z,5.57
2018-07-23T18:59:18.882Z,5.83
2018-07-23T19:01:48.905Z,5.93
2018-07-23T19:04:17.897Z,5.40
2018-07-23T19:06:47.449Z,6.00
2018-07-23T19:09:19.407Z,5.80
2018-07-23T19:11:49.574Z,5.63
2018-07-23T19:14:18.945Z,6.87
2018-07-23T19:16:48.434Z,5.90
2018-07-23T19:19:17.327Z,6.30
2018-07-23T19:21:45.958Z,5.67
2018-07-23T19:24:14.865Z,7.47
2018-07-23T19:26:43.790Z,6.13
2018-07-23T19:29:13.258Z,6.00
2018-07-23T19:31:42.238Z,6.93
2018-07-23T19:34:11.249Z,6.80
2018-07-23T19:36:39.927Z,6.87
2018-07-23T19:39:10.342Z,7.00
2018-07-23T19:41:39.633Z,7.30
2018-07-23T19:44:08.865Z,8.20
2018-07-23T19:46:37.906Z,7.27
2018-07-23T19:49:06.819Z,8.07
2018-07-23T19:51:36.007Z,7.50
2018-07-23T19:54:06.175Z,7.60
2018-07-23T19:56:35.386Z,7.60
2018-07-23T19:59:04.414Z,8.60
2018-07-23T20:01:33.557Z,8.23
2018-07-23T20:04:02.549Z,8.43
2018-07-23T20:06:31.578Z,8.33
2018-07-23T20:09:01.381Z,7.97
2018-07-23T20:11:30.750Z,10.20
2018-07-23T20:13:59.722Z,8.77
2018-07-23T20:16:28.678Z,8.50
2018-07-23T20:18:57.778Z,8.60
2018-07-23T20:21:27.154Z,8.73
2018-07-23T20:23:57.043Z,9.03
2018-07-23T20:26:26.755Z,8.80
2018-07-23T20:28:55.902Z,8.73
2018-07-23T20:31:25.505Z,9.60
2018-07-23T20:33:56.183Z,9.30
2018-07-23T20:36:25.346Z,8.47
2018-07-23T20:38:54.943Z,10.03
2018-07-23T20:41:23.991Z,9.43
2018-07-23T20:43:52.944Z,8.70
2018-07-23T20:46:22.007Z,9.03
2018-07-23T20:48:50.921Z,8.60
2018-07-23T20:51:19.920Z,9.47
2018-07-23T20:53:48.933Z,9.07
2018-07-23T20:56:17.846Z,10.77
2018-07-23T20:58:46.814Z,9.43
2018-07-23T21:01:15.737Z,10.10
2018-07-23T21:03:44.786Z,8.77
2018-07-23T21:06:13.655Z,10.87
2018-07-23T21:08:42.543Z,9.50
2018-07-23T21:11:11.462Z,9.05
2018-07-23T21:13:40.594Z,9.70
2018-07-23T21:16:09.542Z,11.33
2018-07-23T21:18:38.515Z,10.50
2018-07-23T21:21:07.429Z,10.98
2018-07-23T21:23:36.333Z,9.88
2018-07-23T21:26:05.682Z,10.57
2018-07-23T21:28:35.263Z,10.45
2018-07-23T21:31:04.359Z,11.40
2018-07-23T21:33:33.414Z,11.28
2018-07-23T21:36:02.411Z,9.70
2018-07-23T21:38:31.393Z,11.47
2018-07-23T21:41:00.373Z,10.50
2018-07-23T21:43:29.378Z,11.10
2018-07-23T21:45:58.384Z,11.00
2018-07-23T21:48:27.319Z,11.00
2018-07-23T21:50:56.294Z,10.60
2018-07-23T21:53:25.238Z,11.20
2018-07-23T21:55:54.186Z,10.87
2018-07-23T21:58:23.173Z,10.93
2018-07-23T22:00:52.558Z,10.10
2018-07-23T22:03:21.758Z,11.30
2018-07-23T22:05:50.367Z,11.12
2018-07-23T22:08:19.198Z,11.03
2018-07-23T22:10:48.174Z,11.73
2018-07-23T22:13:17.160Z,11.18
2018-07-23T22:15:46.102Z,11.15
2018-07-23T22:18:15.038Z,11.45
2018-07-23T22:20:43.962Z,11.40
2018-07-23T22:23:13.129Z,12.37
2018-07-23T22:25:42.119Z,11.18
2018-07-23T22:28:10.725Z,13.63
2018-07-23T22:30:39.737Z,10.95
2018-07-23T22:33:08.637Z,11.83
2018-07-23T22:35:37.714Z,12.30
2018-07-23T22:38:06.679Z,10.55
2018-07-23T22:40:35.613Z,12.17
2018-07-23T22:43:04.770Z,11.70
2018-07-23T22:45:33.711Z,12.00
2018-07-23T22:48:02.602Z,12.50
2018-07-23T22:50:31.799Z,11.38
2018-07-23T22:53:01.780Z,13.30
2018-07-23T22:55:30.713Z,12.13
2018-07-23T22:57:59.431Z,12.18
2018-07-23T23:00:28.357Z,11.83
2018-07-23T23:02:57.334Z,12.28
2018-07-23T23:05:26.305Z,11.55
2018-07-23T23:07:55.215Z,12.80
2018-07-23T23:10:27.469Z,11.85
2018-07-23T23:12:56.459Z,11.80
2018-07-23T23:15:25.416Z,12.53
2018-07-23T23:17:54.394Z,12.65
2018-07-23T23:20:23.584Z,12.88
2018-07-23T23:22:52.578Z,12.45
2018-07-23T23:25:21.480Z,12.07
2018-07-23T23:27:50.378Z,13.13
2018-07-23T23:30:19.326Z,14.47
2018-07-23T23:32:48.841Z,12.80
2018-07-23T23:35:18.159Z,13.05
2018-07-23T23:37:47.221Z,12.45
2018-07-23T23:40:16.365Z,13.55
2018-07-23T23:42:45.278Z,13.00
2018-07-23T23:45:14.202Z,11.93
2018-07-23T23:47:43.266Z,13.72
2018-07-23T23:50:12.182Z,13.10
2018-07-23T23:52:41.089Z,12.60
2018-07-23T23:55:10.017Z,13.43
2018-07-23T23:57:38.893Z,13.20
